DLH875 ENBR-EDDF
Flight info
| Callsign | DLH875 |
|---|---|
| Flight time | N/A |
| Altitude | 39000 |
| Route | TUXIL4D TUXIL DCT ZOL DCT MITSI P619 NAVIK DCT ATTUS DCT RIMET T157 KERAX KERAX5D |
| Aircraft | A20N/M-SDE2E3FGHIRWXY/LB1 |
Departure
| Time | 2026-04-28 16:45 |
|---|---|
| Airport | Bergen Airport, Flesland (ENBR) |
Arrival
| Time | N/A |
|---|---|
| Airport | Frankfurt Main Airport (EDDF) |
| Time | Latitude | Longitude | Altitude | Speed | Heading |
|---|---|---|---|---|---|
| 2026-04-28 16:18 | 60.28828 | 5.22611 | 161 ft | 0 kts | 35° |
| 2026-04-28 16:35 | 60.28827 | 5.22609 | 160 ft | 2 kts | 35° |
| 2026-04-28 16:35 | 60.28813 | 5.22590 | 160 ft | 2 kts | 35° |
| 2026-04-28 16:35 | 60.28800 | 5.22571 | 160 ft | 2 kts | 33° |
| 2026-04-28 16:35 | 60.28786 | 5.22553 | 160 ft | 2 kts | 33° |
| 2026-04-28 16:36 | 60.28774 | 5.22530 | 160 ft | 2 kts | 69° |
| 2026-04-28 16:36 | 60.28772 | 5.22522 | 160 ft | 0 kts | 72° |
| 2026-04-28 16:36 | 60.28770 | 5.22499 | 160 ft | 2 kts | 85° |
| 2026-04-28 16:36 | 60.28770 | 5.22466 | 160 ft | 2 kts | 117° |
| 2026-04-28 16:37 | 60.28775 | 5.22452 | 160 ft | 0 kts | 163° |
| 2026-04-28 16:38 | 60.28774 | 5.22452 | 160 ft | 1 kts | 163° |
| 2026-04-28 16:39 | 60.28747 | 5.22463 | 160 ft | 7 kts | 172° |
| 2026-04-28 16:39 | 60.28693 | 5.22421 | 159 ft | 9 kts | 234° |
| 2026-04-28 16:39 | 60.28633 | 5.22376 | 159 ft | 11 kts | 174° |
| 2026-04-28 16:39 | 60.28549 | 5.22404 | 158 ft | 14 kts | 170° |
| 2026-04-28 16:40 | 60.28444 | 5.22438 | 157 ft | 17 kts | 171° |
| 2026-04-28 16:40 | 60.28329 | 5.22479 | 156 ft | 18 kts | 172° |
| 2026-04-28 16:40 | 60.28197 | 5.22519 | 155 ft | 20 kts | 171° |
| 2026-04-28 16:40 | 60.28094 | 5.22540 | 154 ft | 12 kts | 195° |
| 2026-04-28 16:41 | 60.28058 | 5.22440 | 153 ft | 6 kts | 258° |
| 2026-04-28 16:41 | 60.28058 | 5.22435 | 153 ft | 0 kts | 259° |
| 2026-04-28 16:43 | 60.28057 | 5.22429 | 153 ft | 3 kts | 259° |
| 2026-04-28 16:43 | 60.28051 | 5.22340 | 152 ft | 10 kts | 269° |
| 2026-04-28 16:43 | 60.28070 | 5.22256 | 152 ft | 1 kts | 317° |
| 2026-04-28 16:44 | 60.28093 | 5.22237 | 152 ft | 6 kts | 346° |
| 2026-04-28 16:44 | 60.28108 | 5.22232 | 152 ft | 0 kts | 351° |
| 2026-04-28 16:45 | 60.28154 | 5.22216 | 153 ft | 28 kts | 351° |
| 2026-04-28 16:45 | 60.28610 | 5.22063 | 159 ft | 102 kts | 350° |
| 2026-04-28 16:45 | 60.29511 | 5.21759 | 181 ft | 157 kts | 350° |
| 2026-04-28 16:45 | 60.30595 | 5.21393 | 786 ft | 158 kts | 349° |
| 2026-04-28 16:46 | 60.31697 | 5.21028 | 1453 ft | 167 kts | 350° |
| 2026-04-28 16:46 | 60.32893 | 5.20622 | 1880 ft | 188 kts | 349° |
| 2026-04-28 16:46 | 60.34250 | 5.20143 | 2434 ft | 211 kts | 349° |
| 2026-04-28 16:46 | 60.35795 | 5.19572 | 2833 ft | 239 kts | 349° |
| 2026-04-28 16:47 | 60.37495 | 5.18970 | 3361 ft | 263 kts | 350° |
| 2026-04-28 16:47 | 60.39333 | 5.18375 | 4217 ft | 269 kts | 350° |
| 2026-04-28 16:47 | 60.41197 | 5.17770 | 5211 ft | 274 kts | 350° |
| 2026-04-28 16:47 | 60.43087 | 5.17144 | 6198 ft | 275 kts | 350° |
| 2026-04-28 16:48 | 60.44989 | 5.16500 | 7156 ft | 280 kts | 349° |
| 2026-04-28 16:48 | 60.46796 | 5.15027 | 8039 ft | 284 kts | 323° |
| 2026-04-28 16:48 | 60.48115 | 5.12095 | 8967 ft | 284 kts | 297° |
| 2026-04-28 16:48 | 60.48691 | 5.08254 | 9777 ft | 289 kts | 272° |
| 2026-04-28 16:49 | 60.48449 | 5.04224 | 10654 ft | 290 kts | 252° |
| 2026-04-28 16:49 | 60.47459 | 5.00667 | 11488 ft | 294 kts | 227° |
| 2026-04-28 16:49 | 60.45795 | 4.98260 | 12269 ft | 298 kts | 202° |
| 2026-04-28 16:49 | 60.43762 | 4.97486 | 13035 ft | 302 kts | 177° |
| 2026-04-28 16:50 | 60.41639 | 4.97925 | 13596 ft | 316 kts | 173° |
| 2026-04-28 16:50 | 60.39378 | 4.98477 | 13810 ft | 339 kts | 173° |
| 2026-04-28 16:50 | 60.37001 | 4.99037 | 14128 ft | 355 kts | 173° |
| 2026-04-28 16:50 | 60.34543 | 4.99597 | 14839 ft | 360 kts | 174° |
| 2026-04-28 16:51 | 60.32029 | 5.00145 | 15574 ft | 363 kts | 174° |
| 2026-04-28 16:51 | 60.29495 | 5.00679 | 16267 ft | 367 kts | 174° |
| 2026-04-28 16:51 | 60.26943 | 5.01308 | 16943 ft | 371 kts | 170° |
| 2026-04-28 16:51 | 60.24391 | 5.02313 | 17600 ft | 375 kts | 169° |
| 2026-04-28 16:52 | 60.21815 | 5.03339 | 18243 ft | 379 kts | 169° |
| 2026-04-28 16:52 | 60.19215 | 5.04369 | 18873 ft | 382 kts | 169° |
| 2026-04-28 16:52 | 60.17478 | 5.05076 | 19280 ft | 385 kts | 167° |
| 2026-04-28 16:52 | 60.14900 | 5.06618 | 19882 ft | 389 kts | 159° |
| 2026-04-28 16:53 | 60.12388 | 5.08747 | 20467 ft | 393 kts | 156° |
| 2026-04-28 16:53 | 60.09872 | 5.10938 | 21040 ft | 396 kts | 157° |
| 2026-04-28 16:53 | 60.07328 | 5.13137 | 21601 ft | 399 kts | 157° |
| 2026-04-28 16:53 | 60.03925 | 5.16058 | 22319 ft | 404 kts | 157° |
| 2026-04-28 16:54 | 60.02170 | 5.17559 | 22686 ft | 406 kts | 157° |
| 2026-04-28 16:54 | 59.99560 | 5.19786 | 23202 ft | 410 kts | 157° |
| 2026-04-28 16:54 | 59.96926 | 5.22030 | 23724 ft | 413 kts | 157° |
| 2026-04-28 16:54 | 59.94306 | 5.24256 | 24198 ft | 416 kts | 157° |
| 2026-04-28 16:55 | 59.91597 | 5.26548 | 24690 ft | 419 kts | 157° |
| 2026-04-28 16:55 | 59.88939 | 5.28793 | 25156 ft | 422 kts | 157° |
| 2026-04-28 16:55 | 59.86220 | 5.31087 | 25603 ft | 425 kts | 157° |
| 2026-04-28 16:55 | 59.83488 | 5.33388 | 26043 ft | 428 kts | 158° |
| 2026-04-28 16:56 | 59.80665 | 5.35336 | 26463 ft | 431 kts | 165° |
| 2026-04-28 16:56 | 59.77733 | 5.36618 | 26870 ft | 433 kts | 172° |
| 2026-04-28 16:56 | 59.74718 | 5.37245 | 27264 ft | 436 kts | 176° |
| 2026-04-28 16:56 | 59.71686 | 5.37710 | 27644 ft | 438 kts | 176° |
| 2026-04-28 16:57 | 59.68639 | 5.38187 | 28013 ft | 441 kts | 175° |
| 2026-04-28 16:57 | 59.65570 | 5.38680 | 28367 ft | 443 kts | 175° |
| 2026-04-28 16:57 | 59.62493 | 5.39239 | 28707 ft | 446 kts | 174° |
| 2026-04-28 16:57 | 59.59400 | 5.40012 | 29036 ft | 448 kts | 172° |
| 2026-04-28 16:58 | 59.56304 | 5.40854 | 29355 ft | 450 kts | 172° |
| 2026-04-28 16:58 | 59.53195 | 5.41694 | 29664 ft | 453 kts | 173° |
| 2026-04-28 16:58 | 59.50060 | 5.42518 | 29973 ft | 455 kts | 173° |
| 2026-04-28 16:58 | 59.46915 | 5.43326 | 30278 ft | 457 kts | 173° |
| 2026-04-28 16:59 | 59.43752 | 5.44125 | 30580 ft | 459 kts | 173° |
| 2026-04-28 16:59 | 59.40573 | 5.44928 | 30880 ft | 461 kts | 172° |
| 2026-04-28 16:59 | 59.37403 | 5.46015 | 31199 ft | 463 kts | 169° |
| 2026-04-28 16:59 | 59.34240 | 5.47177 | 31583 ft | 463 kts | 169° |
| 2026-04-28 17:00 | 59.31186 | 5.48299 | 31960 ft | 462 kts | 169° |
| 2026-04-28 17:00 | 59.28033 | 5.49453 | 32339 ft | 461 kts | 169° |
| 2026-04-28 17:00 | 59.24879 | 5.50601 | 32707 ft | 460 kts | 169° |
| 2026-04-28 17:00 | 59.21731 | 5.51745 | 33062 ft | 459 kts | 169° |
| 2026-04-28 17:01 | 59.18584 | 5.52885 | 33399 ft | 459 kts | 169° |
| 2026-04-28 17:01 | 59.15445 | 5.54019 | 33728 ft | 458 kts | 170° |
| 2026-04-28 17:01 | 59.12313 | 5.55147 | 34049 ft | 457 kts | 170° |
| 2026-04-28 17:01 | 59.09179 | 5.56274 | 34353 ft | 457 kts | 170° |
| 2026-04-28 17:02 | 59.06052 | 5.57397 | 34648 ft | 456 kts | 170° |
| 2026-04-28 17:02 | 59.02936 | 5.58512 | 34933 ft | 456 kts | 170° |
| 2026-04-28 17:02 | 58.99815 | 5.59627 | 35210 ft | 455 kts | 170° |
| 2026-04-28 17:02 | 58.96705 | 5.60736 | 35477 ft | 454 kts | 170° |
| 2026-04-28 17:03 | 58.90494 | 5.62947 | 35978 ft | 453 kts | 170° |
| 2026-04-28 17:03 | 58.87430 | 5.64036 | 36209 ft | 453 kts | 170° |
| 2026-04-28 17:03 | 58.84341 | 5.65266 | 36421 ft | 453 kts | 167° |
| 2026-04-28 17:04 | 58.78218 | 5.68160 | 36804 ft | 453 kts | 166° |
| 2026-04-28 17:04 | 58.75154 | 5.69614 | 36998 ft | 453 kts | 166° |
| 2026-04-28 17:05 | 58.69016 | 5.72451 | 37360 ft | 453 kts | 167° |
| 2026-04-28 17:05 | 58.65949 | 5.73846 | 37526 ft | 453 kts | 167° |
| 2026-04-28 17:05 | 58.62881 | 5.75235 | 37690 ft | 453 kts | 167° |
| 2026-04-28 17:06 | 58.56743 | 5.78006 | 38002 ft | 453 kts | 167° |
| 2026-04-28 17:06 | 58.53679 | 5.79386 | 38153 ft | 453 kts | 167° |
| 2026-04-28 17:06 | 58.47574 | 5.82127 | 38427 ft | 453 kts | 167° |
| 2026-04-28 17:07 | 58.44502 | 5.83503 | 38558 ft | 453 kts | 167° |
| 2026-04-28 17:07 | 58.41419 | 5.84882 | 38685 ft | 453 kts | 167° |
| 2026-04-28 17:07 | 58.38349 | 5.86252 | 38805 ft | 453 kts | 167° |
| 2026-04-28 17:07 | 58.35275 | 5.87621 | 38929 ft | 453 kts | 167° |
| 2026-04-28 17:08 | 58.29176 | 5.90331 | 39003 ft | 453 kts | 167° |
| 2026-04-28 17:08 | 58.23079 | 5.93031 | 39002 ft | 452 kts | 167° |
| 2026-04-28 17:09 | 58.16946 | 5.95737 | 39005 ft | 452 kts | 167° |
| 2026-04-28 17:09 | 58.10810 | 5.98435 | 39002 ft | 452 kts | 167° |
| 2026-04-28 17:10 | 58.04685 | 6.01118 | 38996 ft | 452 kts | 167° |
| 2026-04-28 17:10 | 57.98550 | 6.03796 | 39006 ft | 452 kts | 167° |
| 2026-04-28 17:11 | 57.92430 | 6.06459 | 38994 ft | 452 kts | 167° |
| 2026-04-28 17:11 | 57.86297 | 6.09117 | 38999 ft | 452 kts | 167° |
| 2026-04-28 17:12 | 57.80196 | 6.11753 | 39006 ft | 452 kts | 167° |
| 2026-04-28 17:12 | 57.74061 | 6.14394 | 39003 ft | 452 kts | 167° |
| 2026-04-28 17:13 | 57.67922 | 6.17027 | 38998 ft | 452 kts | 167° |
| 2026-04-28 17:13 | 57.61809 | 6.19641 | 38996 ft | 452 kts | 167° |
| 2026-04-28 17:14 | 57.55676 | 6.22254 | 39007 ft | 452 kts | 167° |
| 2026-04-28 17:14 | 57.49526 | 6.24864 | 39003 ft | 452 kts | 167° |
| 2026-04-28 17:15 | 57.43421 | 6.27448 | 38997 ft | 452 kts | 167° |
| 2026-04-28 17:15 | 57.37283 | 6.30035 | 39007 ft | 452 kts | 167° |
| 2026-04-28 17:16 | 57.31200 | 6.32592 | 39005 ft | 452 kts | 167° |
| 2026-04-28 17:16 | 57.25053 | 6.35166 | 39002 ft | 452 kts | 167° |
| 2026-04-28 17:17 | 57.18912 | 6.37729 | 38998 ft | 452 kts | 167° |
| 2026-04-28 17:17 | 57.12767 | 6.40285 | 39002 ft | 452 kts | 167° |
| 2026-04-28 17:18 | 57.06627 | 6.42831 | 39006 ft | 452 kts | 167° |
| 2026-04-28 17:18 | 57.00658 | 6.46429 | 38996 ft | 452 kts | 156° |
| 2026-04-28 17:19 | 56.95218 | 6.52071 | 38992 ft | 453 kts | 144° |
| 2026-04-28 17:19 | 56.90282 | 6.58915 | 38998 ft | 453 kts | 143° |
| 2026-04-28 17:20 | 56.86102 | 6.64704 | 39001 ft | 453 kts | 143° |
| 2026-04-28 17:20 | 56.80205 | 6.72781 | 39003 ft | 453 kts | 143° |
| 2026-04-28 17:21 | 56.75179 | 6.79624 | 38998 ft | 453 kts | 143° |
| 2026-04-28 17:22 | 56.67592 | 6.89912 | 39001 ft | 453 kts | 143° |
| 2026-04-28 17:22 | 56.62527 | 6.96752 | 39002 ft | 453 kts | 143° |
| 2026-04-28 17:23 | 56.54922 | 7.06983 | 38996 ft | 454 kts | 143° |
| 2026-04-28 17:23 | 56.49846 | 7.13781 | 39003 ft | 454 kts | 144° |
| 2026-04-28 17:24 | 56.44807 | 7.20500 | 39006 ft | 454 kts | 144° |
| 2026-04-28 17:24 | 56.39670 | 7.27330 | 38998 ft | 454 kts | 144° |
| 2026-04-28 17:25 | 56.32041 | 7.37442 | 38997 ft | 454 kts | 144° |
| 2026-04-28 17:26 | 56.26945 | 7.44163 | 39010 ft | 454 kts | 144° |
| 2026-04-28 17:26 | 56.21851 | 7.50860 | 39009 ft | 454 kts | 144° |
| 2026-04-28 17:27 | 56.16783 | 7.57500 | 39001 ft | 453 kts | 144° |
| 2026-04-28 17:27 | 56.11648 | 7.64206 | 39003 ft | 453 kts | 144° |
| 2026-04-28 17:28 | 56.06576 | 7.70806 | 38996 ft | 453 kts | 144° |
| 2026-04-28 17:28 | 55.98923 | 7.80723 | 38998 ft | 453 kts | 144° |
| 2026-04-28 17:29 | 55.93804 | 7.87329 | 38998 ft | 453 kts | 144° |
| 2026-04-28 17:30 | 55.86057 | 7.96969 | 38996 ft | 453 kts | 150° |
| 2026-04-28 17:30 | 55.77629 | 8.04504 | 39000 ft | 452 kts | 154° |
| 2026-04-28 17:31 | 55.69118 | 8.11804 | 39001 ft | 452 kts | 154° |
| 2026-04-28 17:32 | 55.60648 | 8.19060 | 39006 ft | 452 kts | 154° |
| 2026-04-28 17:32 | 55.54938 | 8.23931 | 38994 ft | 453 kts | 154° |
| 2026-04-28 17:33 | 55.49299 | 8.28726 | 38998 ft | 453 kts | 154° |
| 2026-04-28 17:33 | 55.45502 | 8.31946 | 38997 ft | 453 kts | 154° |
| 2026-04-28 17:34 | 55.37936 | 8.38344 | 38998 ft | 453 kts | 154° |
| 2026-04-28 17:34 | 55.32250 | 8.43134 | 39003 ft | 453 kts | 155° |
| 2026-04-28 17:35 | 55.26613 | 8.47867 | 39005 ft | 453 kts | 155° |
| 2026-04-28 17:35 | 55.20926 | 8.52637 | 39006 ft | 453 kts | 154° |
| 2026-04-28 17:36 | 55.15289 | 8.57347 | 38999 ft | 453 kts | 155° |
| 2026-04-28 17:36 | 55.10559 | 8.61283 | 39007 ft | 453 kts | 155° |
| 2026-04-28 17:37 | 55.04862 | 8.66007 | 38999 ft | 453 kts | 155° |
| 2026-04-28 17:37 | 54.99159 | 8.70721 | 39010 ft | 453 kts | 155° |
| 2026-04-28 17:38 | 54.93447 | 8.75379 | 39000 ft | 453 kts | 158° |
| 2026-04-28 17:38 | 54.87413 | 8.78465 | 39002 ft | 452 kts | 165° |
| 2026-04-28 17:39 | 54.81359 | 8.81190 | 38996 ft | 452 kts | 166° |
| 2026-04-28 17:40 | 54.72206 | 8.85214 | 38999 ft | 452 kts | 166° |
| 2026-04-28 17:40 | 54.66119 | 8.87876 | 38998 ft | 452 kts | 166° |
| 2026-04-28 17:41 | 54.60060 | 8.90517 | 39002 ft | 452 kts | 166° |
| 2026-04-28 17:41 | 54.53954 | 8.93170 | 38998 ft | 452 kts | 166° |
| 2026-04-28 17:42 | 54.47842 | 8.95819 | 38998 ft | 452 kts | 166° |
| 2026-04-28 17:42 | 54.41773 | 8.98441 | 39000 ft | 452 kts | 166° |
| 2026-04-28 17:43 | 54.35651 | 9.01077 | 38996 ft | 452 kts | 166° |
| 2026-04-28 17:43 | 54.29594 | 9.03677 | 38996 ft | 452 kts | 166° |
| 2026-04-28 17:44 | 54.23481 | 9.06294 | 39000 ft | 452 kts | 166° |
| 2026-04-28 17:44 | 54.17407 | 9.08885 | 39004 ft | 452 kts | 166° |
| 2026-04-28 17:45 | 54.11293 | 9.11486 | 38998 ft | 452 kts | 166° |